| time (UTC) | temp F | wind direction | speed MPH | gust MPH | rain 1hr in | rain 24hr in | rain mn in | humidity % | barometer mb |
| 20260502105630 | 41 | 205 | 0.0 | 4.0 | 0.00 | 0.00 | 0.00 | 68 | 1019.3 |
| 20260502104619 | 43 | 232 | 4.0 | 5.0 | 0.00 | 0.00 | 0.00 | 66 | 1019.2 |
| 20260502103626 | 42 | 84 | 1.0 | 4.0 | 0.00 | 0.00 | 0.00 | 69 | 1019.3 |
| 20260502102616 | 42 | 198 | 0.0 | 2.0 | 0.00 | 0.00 | 0.00 | 70 | 1019.3 |
| 20260502101628 | 41 | 198 | 1.0 | 2.0 | 0.00 | 0.00 | 0.00 | 70 | 1019.3 |
| 20260502100618 | 41 | 201 | 0.0 | 3.0 | 0.00 | 0.00 | 0.00 | 69 | 1019.2 |
| 20260502090626 | 43 | 204 | 1.0 | 3.0 | 0.00 | 0.00 | 0.00 | 65 | 1019.1 |
| 20260502070642 | 48 | 49 | 2.0 | 5.0 | 0.00 | 0.00 | 0.00 | 60 | 1019.0 |
| 20260502065626 | 51 | 321 | 2.0 | 8.0 | 0.00 | 0.00 | 0.00 | 55 | 1019.0 |
| 20260502064618 | 50 | 63 | 1.0 | 6.0 | 0.00 | 0.00 | 0.00 | 50 | 1018.9 |
| 20260502063626 | 49 | 50 | 2.0 | 4.0 | 0.00 | 0.00 | 0.00 | 60 | 1018.8 |
| 20260502062616 | 49 | 55 | 3.0 | 4.0 | 0.00 | 0.00 | 0.00 | 60 | 1018.8 |
| 20260502061627 | 51 | 275 | 2.0 | 5.0 | 0.00 | 0.00 | 0.00 | 51 | 1018.7 |
| 20260502060628 | 51 | 76 | 2.0 | 5.0 | 0.00 | 0.00 | 0.00 | 46 | 1018.5 |
| 20260502055628 | 49 | 248 | 0.0 | 0.0 | 0.00 | 0.00 | 0.00 | 55 | 1018.5 |
| 20260502054615 | 49 | 248 | 0.0 | 3.0 | 0.00 | 0.00 | 0.00 | 55 | 1018.5 |
| 20260502053645 | 50 | 248 | 2.0 | 4.0 | 0.00 | 0.00 | 0.00 | 54 | 1018.3 |
| 20260502052619 | 51 | 152 | 2.0 | 3.0 | 0.00 | 0.00 | 0.00 | 51 | 1018.2 |
| 20260502051629 | 51 | 153 | 1.0 | 5.0 | 0.00 | 0.00 | 0.00 | 51 | 1018.2 |
| 20260502050620 | 52 | 167 | 1.0 | 3.0 | 0.00 | 0.00 | 0.00 | 51 | 1018.2 |
| 20260502045618 | 53 | 166 | 3.0 | 3.0 | 0.00 | 0.00 | 0.00 | 50 | 1018.2 |
| 20260502044629 | 54 | 166 | 1.0 | 5.0 | 0.00 | 0.00 | 0.00 | 47 | 1018.2 |
| 20260502043638 | 54 | 168 | 2.0 | 3.0 | 0.00 | 0.00 | 0.00 | 46 | 1018.2 |
| 20260502042625 | 54 | 168 | 2.0 | 5.0 | 0.00 | 0.00 | 0.00 | 47 | 1018.2 |
| 20260502041632 | 54 | 165 | 2.0 | 4.0 | 0.00 | 0.00 | 0.00 | 47 | 1018.2 |
| 20260502040624 | 54 | 165 | 2.0 | 3.0 | 0.00 | 0.00 | 0.00 | 48 | 1018.0 |
| 20260502035626 | 55 | 165 | 2.0 | 5.0 | 0.00 | 0.00 | 0.00 | 45 | 1017.9 |
| 20260502034614 | 58 | 155 | 2.0 | 5.0 | 0.00 | 0.00 | 0.00 | 39 | 1017.7 |
| 20260502033624 | 57 | 222 | 0.0 | 3.0 | 0.00 | 0.00 | 0.00 | 40 | 1017.6 |
| 20260502032619 | 57 | 227 | 0.0 | 4.0 | 0.00 | 0.00 | 0.00 | 42 | 1017.6 |
| 20260502031630 | 58 | 243 | 1.0 | 2.0 | 0.00 | 0.00 | 0.00 | 41 | 1017.4 |
| 20260502030641 | 58 | 248 | 1.0 | 2.0 | 0.00 | 0.00 | 0.00 | 41 | 1017.2 |
| 20260502025620 | 59 | 255 | 1.0 | 2.0 | 0.00 | 0.00 | 0.00 | 45 | 1017.0 |
| 20260502024613 | 61 | 255 | 1.0 | 2.0 | 0.00 | 0.00 | 0.00 | 42 | 1016.9 |
| 20260502023622 | 64 | 256 | 2.0 | 4.0 | 0.00 | 0.00 | 0.00 | 33 | 1016.9 |
| 20260502022630 | 65 | 333 | 0.0 | 1.0 | 0.00 | 0.00 | 0.00 | 24 | 1016.7 |
| 20260502021637 | 66 | 333 | 1.0 | 2.0 | 0.00 | 0.00 | 0.00 | 24 | 1016.7 |
| 20260502020627 | 67 | 333 | 1.0 | 2.0 | 0.00 | 0.00 | 0.00 | 24 | 1016.7 |
| 20260502015626 | 67 | 332 | 0.0 | 3.0 | 0.00 | 0.00 | 0.00 | 26 | 1016.6 |
| 20260502014613 | 67 | 331 | 1.0 | 3.0 | 0.00 | 0.00 | 0.00 | 25 | 1016.7 |
| 20260502013621 | 68 | 330 | 2.0 | 4.0 | 0.00 | 0.00 | 0.00 | 25 | 1016.6 |
| 20260502012632 | 68 | 276 | 2.0 | 5.0 | 0.00 | 0.00 | 0.00 | 24 | 1016.6 |
| 20260502011620 | 68 | 333 | 1.0 | 5.0 | 0.00 | 0.00 | 0.00 | 23 | 1016.6 |
| 20260502010649 | 68 | 36 | 2.0 | 4.0 | 0.00 | 0.00 | 0.00 | 23 | 1016.6 |
| 20260502005626 | 68 | 296 | 3.0 | 5.0 | 0.00 | 0.00 | 0.00 | 24 | 1016.7 |
| 20260502004617 | 68 | 347 | 2.0 | 4.0 | 0.00 | 0.00 | 0.00 | 24 | 1016.6 |
| 20260502003646 | 68 | 44 | 2.0 | 6.0 | 0.00 | 0.00 | 0.00 | 24 | 1016.7 |
| 20260502002615 | 68 | 331 | 3.0 | 8.0 | 0.00 | 0.00 | 0.00 | 25 | 1016.7 |
| 20260502001623 | 68 | 309 | 3.0 | 7.0 | 0.00 | 0.00 | 0.00 | 25 | 1016.8 |
| 20260502000634 | 68 | 66 | 4.0 | 8.0 | 0.00 | 0.00 | 0.00 | 25 | 1016.8 |
| 20260501235614 | 68 | 309 | 4.0 | 9.0 | 0.00 | 0.00 | 0.00 | 26 | 1016.9 |
| 20260501234624 | 68 | 333 | 4.0 | 9.0 | 0.00 | 0.00 | 0.00 | 26 | 1017.0 |
| 20260501233614 | 67 | 257 | 5.0 | 9.0 | 0.00 | 0.00 | 0.00 | 26 | 1017.1 |
| 20260501232622 | 67 | 309 | 3.0 | 9.0 | 0.00 | 0.00 | 0.00 | 28 | 1017.0 |
| 20260501231638 | 68 | 324 | 1.0 | 9.0 | 0.00 | 0.00 | 0.00 | 26 | 1017.0 |
| 20260501230627 | 68 | 311 | 6.0 | 11.0 | 0.00 | 0.00 | 0.00 | 26 | 1017.2 |
| 20260501225625 | 67 | 41 | 3.0 | 5.0 | 0.00 | 0.00 | 0.00 | 26 | 1017.2 |
| 20260501224615 | 67 | 275 | 2.0 | 10.0 | 0.00 | 0.00 | 0.00 | 27 | 1017.3 |
| 20260501223628 | 67 | 267 | 6.0 | 9.0 | 0.00 | 0.00 | 0.00 | 28 | 1017.4 |
| 20260501222617 | 67 | 236 | 1.0 | 8.0 | 0.00 | 0.00 | 0.00 | 25 | 1017.6 |
| 20260501221628 | 67 | 339 | 3.0 | 10.0 | 0.00 | 0.00 | 0.00 | 26 | 1017.7 |
| 20260501220615 | 67 | 32 | 2.0 | 6.0 | 0.00 | 0.00 | 0.00 | 28 | 1017.8 |
| 20260501215617 | 66 | 12 | 2.0 | 9.0 | 0.00 | 0.00 | 0.00 | 27 | 1018.0 |
| 20260501214626 | 66 | 40 | 3.0 | 8.0 | 0.00 | 0.00 | 0.00 | 26 | 1018.0 |
| 20260501213652 | 65 | 260 | 4.0 | 16.0 | 0.00 | 0.00 | 0.00 | 29 | 1018.2 |
| 20260501212620 | 66 | 302 | 3.0 | 9.0 | 0.00 | 0.00 | 0.00 | 28 | 1018.3 |
| 20260501211614 | 65 | 39 | 5.0 | 9.0 | 0.00 | 0.00 | 0.00 | 29 | 1018.4 |
| 20260501210624 | 65 | 342 | 5.0 | 9.0 | 0.00 | 0.00 | 0.00 | 28 | 1018.5 |
| 20260501205626 | 64 | 322 | 4.0 | 10.0 | 0.00 | 0.00 | 0.00 | 30 | 1018.5 |
| 20260501204614 | 65 | 304 | 3.0 | 10.0 | 0.00 | 0.00 | 0.00 | 30 | 1018.6 |
| 20260501203627 | 65 | 288 | 2.0 | 9.0 | 0.00 | 0.00 | 0.00 | 28 | 1018.6 |
| 20260501202653 | 64 | 44 | 6.0 | 11.0 | 0.00 | 0.00 | 0.00 | 30 | 1018.7 |
| 20260501201620 | 63 | 9 | 4.0 | 12.0 | 0.00 | 0.00 | 0.00 | 32 | 1018.7 |
| 20260501200625 | 63 | 284 | 2.0 | 10.0 | 0.00 | 0.00 | 0.00 | 32 | 1018.7 |
| 20260501195645 | 63 | 86 | 1.0 | 9.0 | 0.00 | 0.00 | 0.00 | 29 | 1018.8 |
| 20260501194616 | 63 | 44 | 5.0 | 11.0 | 0.00 | 0.00 | 0.00 | 31 | 1018.9 |
| 20260501193625 | 62 | 271 | 2.0 | 9.0 | 0.00 | 0.00 | 0.00 | 33 | 1019.0 |
| 20260501192616 | 61 | 235 | 2.0 | 8.0 | 0.00 | 0.00 | 0.00 | 33 | 1019.0 |
| 20260501191630 | 61 | 277 | 4.0 | 7.0 | 0.00 | 0.00 | 0.00 | 34 | 1019.1 |
| 20260501190619 | 61 | 355 | 2.0 | 10.0 | 0.00 | 0.00 | 0.00 | 33 | 1019.2 |
| 20260501185618 | 61 | 240 | 3.0 | 10.0 | 0.00 | 0.00 | 0.00 | 33 | 1019.3 |
| 20260501184625 | 60 | 239 | 2.0 | 6.0 | 0.00 | 0.00 | 0.00 | 35 | 1019.4 |
| 20260501183617 | 61 | 360 | 3.0 | 7.0 | 0.00 | 0.00 | 0.00 | 36 | 1019.6 |
| 20260501182626 | 60 | 271 | 3.0 | 6.0 | 0.00 | 0.00 | 0.00 | 38 | 1019.6 |
| 20260501181614 | 60 | 344 | 2.0 | 5.0 | 0.00 | 0.00 | 0.00 | 34 | 1019.7 |
| 20260501180634 | 59 | 10 | 2.0 | 8.0 | 0.00 | 0.00 | 0.00 | 35 | 1019.7 |
| 20260501175632 | 59 | 35 | 3.0 | 6.0 | 0.00 | 0.00 | 0.00 | 34 | 1019.8 |
| 20260501174625 | 58 | 32 | 2.0 | 8.0 | 0.00 | 0.00 | 0.00 | 37 | 1019.9 |
| 20260501173633 | 58 | 34 | 4.0 | 6.0 | 0.00 | 0.00 | 0.00 | 37 | 1020.0 |
| 20260501172622 | 58 | 324 | 2.0 | 5.0 | 0.00 | 0.00 | 0.00 | 37 | 1020.1 |
| 20260501171627 | 58 | 25 | 1.0 | 5.0 | 0.00 | 0.00 | 0.00 | 39 | 1020.2 |
| 20260501170620 | 57 | 317 | 2.0 | 5.0 | 0.00 | 0.00 | 0.00 | 44 | 1020.2 |
| 20260501165618 | 56 | 32 | 2.0 | 6.0 | 0.00 | 0.00 | 0.00 | 42 | 1020.4 |
| 20260501164628 | 56 | 280 | 2.0 | 6.0 | 0.00 | 0.00 | 0.00 | 46 | 1020.4 |
| 20260501163637 | 55 | 265 | 2.0 | 6.0 | 0.00 | 0.00 | 0.00 | 47 | 1020.4 |